createdAt,value
2017-08-13T00:01:14.284Z,3.40
2017-08-13T00:03:42.565Z,3.55
2017-08-13T00:06:11.600Z,2.60
2017-08-13T00:08:39.920Z,6.75
2017-08-13T00:11:09.584Z,3.45
2017-08-13T00:13:37.839Z,3.92
2017-08-13T00:16:06.125Z,2.90
2017-08-13T00:18:35.164Z,4.05
2017-08-13T00:21:03.479Z,3.65
2017-08-13T00:23:32.628Z,4.30
2017-08-13T00:26:00.903Z,3.65
2017-08-13T00:28:29.962Z,3.62
2017-08-13T00:30:58.278Z,3.55
2017-08-13T00:33:26.587Z,3.80
2017-08-13T00:35:54.897Z,3.15
2017-08-13T00:38:23.907Z,3.62
2017-08-13T00:40:52.223Z,4.20
2017-08-13T00:43:21.260Z,4.60
2017-08-13T00:45:49.620Z,4.30
2017-08-13T00:48:17.892Z,3.15
2017-08-13T00:50:46.164Z,3.70
2017-08-13T00:53:14.460Z,3.30
2017-08-13T00:55:43.497Z,4.35
2017-08-13T00:58:11.888Z,3.80
2017-08-13T01:00:40.929Z,3.80
2017-08-13T01:03:09.191Z,4.20
2017-08-13T01:05:37.482Z,4.40
2017-08-13T01:08:05.745Z,3.70
2017-08-13T01:10:34.808Z,2.90
2017-08-13T01:13:03.063Z,4.28
2017-08-13T01:15:31.340Z,4.07
2017-08-13T01:17:59.684Z,2.83
2017-08-13T01:20:27.958Z,3.45
2017-08-13T01:22:56.441Z,5.57
2017-08-13T01:25:25.520Z,6.32
2017-08-13T01:27:53.784Z,3.35
2017-08-13T01:30:22.826Z,5.35
2017-08-13T01:32:51.095Z,3.00
2017-08-13T01:35:19.404Z,3.55
2017-08-13T01:37:47.667Z,3.85
2017-08-13T01:40:15.931Z,3.53
2017-08-13T01:42:44.219Z,4.85
2017-08-13T01:45:12.480Z,4.40
2017-08-13T01:47:40.792Z,3.00
2017-08-13T01:50:09.829Z,3.37
2017-08-13T01:52:38.087Z,3.30
2017-08-13T01:55:06.382Z,5.53
2017-08-13T01:57:34.644Z,7.10
2017-08-13T02:00:02.947Z,5.07
2017-08-13T02:02:31.213Z,3.20
2017-08-13T02:04:59.475Z,4.30
2017-08-13T02:07:27.766Z,5.90
2017-08-13T02:09:56.027Z,4.00
2017-08-13T02:12:24.351Z,3.20
2017-08-13T02:14:52.633Z,3.20
2017-08-13T02:17:20.910Z,4.55
2017-08-13T02:19:49.195Z,7.50
2017-08-13T02:22:17.460Z,4.55
2017-08-13T02:24:45.924Z,3.55
2017-08-13T02:27:14.189Z,3.50
2017-08-13T02:29:43.215Z,4.60
2017-08-13T02:32:11.499Z,3.80
2017-08-13T02:34:39.764Z,3.83
2017-08-13T02:37:08.076Z,3.62
2017-08-13T02:39:36.345Z,4.35
2017-08-13T02:42:04.619Z,3.05
2017-08-13T02:44:32.904Z,3.92
2017-08-13T02:47:01.176Z,4.20
2017-08-13T02:49:30.492Z,3.92
2017-08-13T02:51:59.524Z,3.90
2017-08-13T02:54:27.796Z,3.70
2017-08-13T02:56:56.080Z,3.90
2017-08-13T02:59:25.115Z,3.35
2017-08-13T03:01:53.403Z,4.50
2017-08-13T03:04:21.684Z,2.67
2017-08-13T03:06:50.723Z,2.95
2017-08-13T03:09:19.024Z,3.80
2017-08-13T03:11:47.288Z,5.80
2017-08-13T03:14:16.347Z,5.10
2017-08-13T03:16:44.615Z,3.50
2017-08-13T03:19:12.875Z,3.47
2017-08-13T03:21:41.166Z,3.53
2017-08-13T03:24:10.204Z,3.37
2017-08-13T03:26:38.516Z,5.00
2017-08-13T03:29:06.779Z,3.35
2017-08-13T03:31:35.065Z,3.70
2017-08-13T03:34:03.339Z,4.62
2017-08-13T03:36:32.511Z,3.20
2017-08-13T03:39:00.812Z,3.40
2017-08-13T03:41:29.846Z,3.87
2017-08-13T03:43:58.108Z,4.15
2017-08-13T03:46:26.392Z,3.47
2017-08-13T03:48:54.667Z,3.15
2017-08-13T03:51:23.728Z,3.20
2017-08-13T03:53:51.999Z,4.20
2017-08-13T03:56:20.276Z,3.50
2017-08-13T03:58:48.560Z,2.85
2017-08-13T04:01:16.827Z,6.15
2017-08-13T04:03:45.147Z,5.03
2017-08-13T04:06:13.412Z,3.00
2017-08-13T04:08:41.671Z,4.07
2017-08-13T04:11:10.866Z,3.20
2017-08-13T04:13:39.129Z,2.95
2017-08-13T04:16:08.307Z,4.03
2017-08-13T04:18:36.580Z,4.40
2017-08-13T04:21:05.847Z,2.80
2017-08-13T04:23:34.136Z,6.03
2017-08-13T04:26:02.412Z,4.30
2017-08-13T04:28:30.704Z,2.75
2017-08-13T04:30:58.970Z,6.55
2017-08-13T04:33:27.256Z,3.53
2017-08-13T04:35:55.552Z,5.37
2017-08-13T04:38:23.814Z,3.05
2017-08-13T04:40:52.112Z,3.42
2017-08-13T04:43:20.389Z,5.57
2017-08-13T04:45:48.654Z,5.25
2017-08-13T04:48:16.941Z,3.75
2017-08-13T04:50:45.972Z,3.60
2017-08-13T04:53:14.283Z,6.53
2017-08-13T04:55:43.311Z,3.40
2017-08-13T04:58:11.587Z,7.00
2017-08-13T05:00:39.881Z,3.80
2017-08-13T05:03:08.903Z,8.98
2017-08-13T05:05:37.226Z,3.78
2017-08-13T05:08:06.266Z,4.40
2017-08-13T05:10:34.525Z,3.30
2017-08-13T05:13:02.805Z,3.85
2017-08-13T05:15:31.067Z,3.60
2017-08-13T05:17:59.372Z,5.00
2017-08-13T05:20:27.640Z,3.75
2017-08-13T05:22:55.909Z,2.87
2017-08-13T05:25:24.192Z,3.80
2017-08-13T05:27:52.459Z,3.53
2017-08-13T05:30:20.786Z,3.20
2017-08-13T05:32:49.056Z,3.85
2017-08-13T05:35:17.319Z,3.85
2017-08-13T05:37:45.647Z,4.68
2017-08-13T05:40:13.907Z,3.60
2017-08-13T05:42:42.217Z,3.75
2017-08-13T05:45:10.483Z,4.70
2017-08-13T05:47:38.747Z,4.03
2017-08-13T05:50:07.043Z,5.68
2017-08-13T05:52:36.067Z,3.50
2017-08-13T05:55:04.367Z,4.45
2017-08-13T05:57:32.636Z,4.85
2017-08-13T06:00:01.669Z,4.40
2017-08-13T06:02:29.959Z,4.28
2017-08-13T06:04:58.215Z,5.20
2017-08-13T06:07:26.514Z,5.50
2017-08-13T06:09:55.560Z,5.20
2017-08-13T06:12:23.828Z,5.15
2017-08-13T06:14:52.116Z,5.90
2017-08-13T06:17:20.380Z,4.07
2017-08-13T06:19:48.695Z,8.13
2017-08-13T06:22:16.959Z,6.30
2017-08-13T06:24:45.232Z,4.65
2017-08-13T06:27:13.517Z,5.15
2017-08-13T06:29:42.552Z,4.47
2017-08-13T06:32:11.263Z,5.22
2017-08-13T06:34:39.523Z,5.03
2017-08-13T06:37:07.776Z,5.22
2017-08-13T06:39:36.839Z,6.85
2017-08-13T06:42:05.128Z,5.50
2017-08-13T06:44:34.308Z,4.87
2017-08-13T06:47:03.344Z,5.55
2017-08-13T06:49:31.619Z,5.15
2017-08-13T06:51:59.899Z,4.47
2017-08-13T06:54:28.928Z,4.47
2017-08-13T06:56:57.227Z,5.62
2017-08-13T06:59:25.500Z,6.15
2017-08-13T07:01:53.780Z,4.68
2017-08-13T07:04:22.824Z,4.15
2017-08-13T07:06:51.087Z,4.28
2017-08-13T07:09:19.584Z,5.62
2017-08-13T07:11:47.843Z,5.25
2017-08-13T07:14:16.877Z,4.65
2017-08-13T07:16:45.151Z,5.20
2017-08-13T07:19:13.420Z,4.68
2017-08-13T07:21:41.703Z,5.05
2017-08-13T07:24:10.749Z,7.15
2017-08-13T07:26:39.444Z,10.02
2017-08-13T07:29:07.715Z,4.10
2017-08-13T07:31:36.739Z,6.95
2017-08-13T07:34:05.051Z,4.85
2017-08-13T07:36:34.077Z,6.20
2017-08-13T07:39:02.350Z,4.50
2017-08-13T07:41:30.633Z,4.18
2017-08-13T07:43:58.904Z,5.90
2017-08-13T07:46:27.200Z,3.72
2017-08-13T07:48:55.468Z,6.00
2017-08-13T07:51:23.744Z,4.97
2017-08-13T07:53:52.019Z,5.60
2017-08-13T07:56:20.286Z,4.32
2017-08-13T07:58:49.105Z,4.57
2017-08-13T08:01:18.140Z,4.25
2017-08-13T08:03:46.421Z,4.68
2017-08-13T08:06:14.963Z,5.82
2017-08-13T08:08:43.236Z,4.15
2017-08-13T08:11:11.552Z,3.62
2017-08-13T08:13:39.824Z,5.15
2017-08-13T08:16:08.083Z,4.60
2017-08-13T08:18:36.410Z,6.20
2017-08-13T08:21:05.443Z,4.80
2017-08-13T08:23:33.743Z,5.80
2017-08-13T08:26:02.784Z,7.57
2017-08-13T08:28:31.053Z,4.10
2017-08-13T08:30:59.335Z,4.03
2017-08-13T08:33:27.615Z,5.00
2017-08-13T08:35:56.784Z,9.10
2017-08-13T08:38:25.826Z,4.10
2017-08-13T08:40:54.106Z,5.50
2017-08-13T08:43:22.387Z,6.00
2017-08-13T08:45:50.668Z,5.05
2017-08-13T08:48:19.777Z,6.35
2017-08-13T08:50:48.036Z,6.47
2017-08-13T08:53:16.620Z,5.40
2017-08-13T08:55:44.904Z,7.05
2017-08-13T08:58:13.171Z,5.43
2017-08-13T09:00:41.500Z,6.30
2017-08-13T09:03:09.776Z,7.75
2017-08-13T09:05:38.036Z,5.85
2017-08-13T09:08:06.419Z,8.18
2017-08-13T09:10:34.676Z,8.13
2017-08-13T09:13:02.971Z,7.12
2017-08-13T09:15:31.261Z,10.57
2017-08-13T09:17:59.515Z,7.07
2017-08-13T09:20:27.804Z,6.30
2017-08-13T09:22:56.070Z,7.60
2017-08-13T09:25:24.388Z,6.15
2017-08-13T09:27:52.660Z,6.82
2017-08-13T09:30:20.927Z,7.40
2017-08-13T09:32:49.214Z,9.80
2017-08-13T09:35:17.484Z,8.02
2017-08-13T09:37:45.811Z,6.12
2017-08-13T09:40:14.076Z,7.37
2017-08-13T09:42:42.344Z,6.55
2017-08-13T09:45:10.625Z,6.70
2017-08-13T09:47:38.896Z,7.53
2017-08-13T09:50:07.200Z,6.18
2017-08-13T09:52:35.471Z,6.55
2017-08-13T09:55:03.751Z,6.70
2017-08-13T09:57:32.036Z,9.38
2017-08-13T10:00:00.306Z,6.90
2017-08-13T10:02:28.599Z,5.72
2017-08-13T10:04:56.920Z,5.78
2017-08-13T10:07:25.215Z,7.68
2017-08-13T10:09:53.513Z,6.53
2017-08-13T10:12:21.787Z,5.55
2017-08-13T10:14:50.093Z,7.22
2017-08-13T10:17:19.232Z,5.57
2017-08-13T10:19:47.527Z,6.62
2017-08-13T10:22:16.598Z,5.50
2017-08-13T10:24:45.777Z,7.30
2017-08-13T10:27:14.851Z,6.12
2017-08-13T10:29:43.116Z,8.20
2017-08-13T10:32:11.415Z,6.85
2017-08-13T10:34:39.750Z,7.20
2017-08-13T10:37:08.034Z,5.97
2017-08-13T10:39:37.120Z,7.50
2017-08-13T10:42:05.395Z,4.80
2017-08-13T10:44:33.671Z,6.53
2017-08-13T10:47:02.089Z,5.40
2017-08-13T10:49:30.356Z,4.85
2017-08-13T10:51:59.408Z,6.30
2017-08-13T10:54:27.672Z,4.87
2017-08-13T10:56:55.968Z,3.72
2017-08-13T10:59:25.076Z,5.20
2017-08-13T11:01:53.343Z,4.25
2017-08-13T11:04:21.650Z,3.40
2017-08-13T11:06:49.930Z,3.25
2017-08-13T11:09:18.967Z,3.85
2017-08-13T11:11:47.247Z,7.12
2017-08-13T11:14:15.519Z,3.40
2017-08-13T11:16:44.588Z,3.83
2017-08-13T11:19:12.877Z,6.32
2017-08-13T11:21:41.912Z,4.20
2017-08-13T11:24:10.192Z,3.35
2017-08-13T11:26:39.228Z,3.97
2017-08-13T11:29:07.599Z,5.00
2017-08-13T11:31:35.941Z,4.28
2017-08-13T11:34:04.212Z,4.07
2017-08-13T11:36:32.496Z,3.70
2017-08-13T11:39:00.764Z,4.25
2017-08-13T11:41:29.556Z,4.20
2017-08-13T11:43:58.592Z,4.55
2017-08-13T11:46:26.872Z,4.57
2017-08-13T11:48:55.163Z,6.10
2017-08-13T11:51:24.196Z,3.50
2017-08-13T11:53:52.548Z,3.87
2017-08-13T11:56:21.708Z,4.00
2017-08-13T11:58:49.976Z,3.30
2017-08-13T12:01:18.264Z,3.05
2017-08-13T12:03:46.540Z,3.67
2017-08-13T12:06:14.848Z,3.67
2017-08-13T12:08:43.124Z,5.15
2017-08-13T12:11:11.400Z,4.40
2017-08-13T12:13:39.676Z,3.65
2017-08-13T12:16:07.948Z,4.18
2017-08-13T12:18:36.440Z,3.55
2017-08-13T12:21:05.467Z,3.78
2017-08-13T12:23:33.731Z,3.85
2017-08-13T12:26:02.019Z,3.53
2017-08-13T12:28:30.287Z,2.80
2017-08-13T12:30:58.591Z,2.97
2017-08-13T12:33:26.862Z,2.47
2017-08-13T12:35:55.134Z,2.05
2017-08-13T12:38:23.540Z,2.00
2017-08-13T12:40:51.816Z,2.03
2017-08-13T12:43:20.887Z,3.85
2017-08-13T12:45:50.027Z,1.50
2017-08-13T12:48:18.304Z,1.65
2017-08-13T12:50:46.587Z,1.90
2017-08-13T12:53:14.851Z,1.67
2017-08-13T12:55:43.905Z,1.30
2017-08-13T12:58:12.179Z,1.77
2017-08-13T13:00:40.455Z,1.85
2017-08-13T13:03:09.496Z,2.47
2017-08-13T13:05:37.807Z,1.73
2017-08-13T13:08:06.836Z,2.40
2017-08-13T13:10:35.112Z,1.55
2017-08-13T13:13:03.408Z,5.57
2017-08-13T13:15:32.444Z,1.70
2017-08-13T13:18:00.732Z,2.25
2017-08-13T13:20:29.776Z,1.83
2017-08-13T13:22:58.056Z,4.10
2017-08-13T13:25:26.340Z,1.55
2017-08-13T13:27:55.396Z,3.50
2017-08-13T13:30:23.664Z,1.50
2017-08-13T13:32:52.848Z,1.37
2017-08-13T13:35:21.116Z,1.90
2017-08-13T13:37:49.411Z,2.15
2017-08-13T13:40:17.683Z,1.60
2017-08-13T13:42:45.972Z,1.30
2017-08-13T13:45:14.239Z,1.23
2017-08-13T13:47:42.536Z,1.60
2017-08-13T13:50:11.579Z,1.60
2017-08-13T13:52:39.858Z,1.40
2017-08-13T13:55:08.127Z,1.25
2017-08-13T14:00:14.728Z,1.00
2017-08-13T14:02:43.031Z,1.17
2017-08-13T14:05:11.311Z,1.10
2017-08-13T14:07:40.364Z,1.77
2017-08-13T14:10:08.654Z,1.30
2017-08-13T14:12:38.144Z,1.30
2017-08-13T14:15:07.232Z,1.42
2017-08-13T14:17:36.278Z,0.95
2017-08-13T14:20:04.569Z,0.90
2017-08-13T14:22:33.603Z,1.10
2017-08-13T14:25:01.897Z,1.20
2017-08-13T14:27:30.168Z,0.95
2017-08-13T14:29:58.511Z,0.80
2017-08-13T14:32:26.803Z,1.73
2017-08-13T14:34:55.095Z,1.23
2017-08-13T14:37:23.380Z,1.47
2017-08-13T14:39:51.684Z,0.80
2017-08-13T14:42:20.731Z,1.20
2017-08-13T14:44:49.011Z,1.00
2017-08-13T14:47:18.047Z,1.55
2017-08-13T14:49:46.349Z,1.20
2017-08-13T14:52:14.659Z,0.82
2017-08-13T14:54:42.958Z,2.00
2017-08-13T14:57:11.240Z,1.20
2017-08-13T14:59:39.519Z,0.90
2017-08-13T15:02:08.546Z,1.07
2017-08-13T15:04:36.840Z,1.20
2017-08-13T15:07:05.883Z,1.07
2017-08-13T15:09:34.196Z,1.12
2017-08-13T15:12:03.228Z,1.00
2017-08-13T15:14:31.532Z,1.40
2017-08-13T15:17:00.568Z,0.88
2017-08-13T15:19:28.888Z,1.10
2017-08-13T15:21:57.171Z,1.10
2017-08-13T15:24:25.453Z,1.40
2017-08-13T15:26:53.772Z,1.30
2017-08-13T15:29:22.087Z,1.23
2017-08-13T15:31:50.403Z,1.35
2017-08-13T15:34:18.659Z,1.30
2017-08-13T15:36:46.952Z,1.37
2017-08-13T15:39:15.232Z,1.17
2017-08-13T15:41:43.524Z,1.23
2017-08-13T15:44:12.559Z,1.15
2017-08-13T15:46:40.855Z,1.48
2017-08-13T15:49:09.897Z,1.40
2017-08-13T15:51:38.191Z,1.10
2017-08-13T15:54:07.243Z,1.13
2017-08-13T15:56:35.520Z,1.40
2017-08-13T15:59:03.791Z,1.30
2017-08-13T16:01:32.863Z,1.10
2017-08-13T16:04:01.116Z,1.10
2017-08-13T16:06:29.671Z,1.20
2017-08-13T16:08:57.947Z,1.12
2017-08-13T16:11:26.252Z,1.37
2017-08-13T16:13:54.526Z,1.30
2017-08-13T16:16:22.817Z,1.70
2017-08-13T16:18:51.093Z,1.40
2017-08-13T16:21:19.435Z,2.15
2017-08-13T16:23:47.712Z,1.20
2017-08-13T16:26:15.988Z,1.50
2017-08-13T16:28:44.300Z,1.45
2017-08-13T16:31:12.589Z,1.15
2017-08-13T16:33:40.878Z,1.10
2017-08-13T16:36:09.150Z,1.50
2017-08-13T16:38:37.439Z,1.20
2017-08-13T16:41:05.712Z,1.40
2017-08-13T16:43:34.003Z,1.10
2017-08-13T16:46:02.279Z,1.40
2017-08-13T16:48:30.574Z,1.48
2017-08-13T16:53:33.495Z,1.20
2017-08-13T16:56:01.768Z,1.40
2017-08-13T16:58:30.055Z,1.50
2017-08-13T17:00:59.087Z,1.60
2017-08-13T17:03:27.423Z,1.80
2017-08-13T17:05:55.712Z,1.15
2017-08-13T17:08:24.013Z,3.55
2017-08-13T17:10:53.051Z,1.10
2017-08-13T17:13:21.370Z,1.00
2017-08-13T17:15:50.413Z,1.70
2017-08-13T17:18:18.703Z,1.27
2017-08-13T17:20:47.753Z,1.40
2017-08-13T17:23:16.043Z,1.37
2017-08-13T17:25:44.319Z,1.50
2017-08-13T17:28:12.599Z,1.52
2017-08-13T17:30:40.888Z,1.30
2017-08-13T17:33:09.156Z,1.57
2017-08-13T17:35:37.471Z,1.40
2017-08-13T17:38:05.743Z,1.37
2017-08-13T17:40:34.019Z,1.30
2017-08-13T17:43:02.325Z,1.65
2017-08-13T17:45:30.601Z,1.30
2017-08-13T17:47:59.632Z,2.80
2017-08-13T17:50:27.936Z,1.75
2017-08-13T17:52:57.017Z,1.30
2017-08-13T17:55:26.073Z,1.60
2017-08-13T17:57:54.349Z,1.80
2017-08-13T18:00:23.415Z,4.28
2017-08-13T18:02:51.715Z,2.87
2017-08-13T18:05:20.045Z,2.92
2017-08-13T18:07:48.309Z,1.70
2017-08-13T18:10:17.435Z,2.30
2017-08-13T18:12:45.704Z,3.42
2017-08-13T18:15:13.976Z,1.50
2017-08-13T18:17:42.299Z,1.48
2017-08-13T18:20:10.666Z,1.83
2017-08-13T18:22:38.983Z,3.70
2017-08-13T18:25:07.260Z,2.28
2017-08-13T18:27:35.535Z,1.65
2017-08-13T18:30:04.640Z,2.15
2017-08-13T18:32:33.092Z,3.78
2017-08-13T18:35:02.168Z,2.25
2017-08-13T18:37:31.200Z,2.10
2017-08-13T18:40:00.263Z,2.05
2017-08-13T18:42:28.548Z,3.75
2017-08-13T18:44:56.824Z,2.35
2017-08-13T18:47:25.300Z,5.57
2017-08-13T18:49:54.327Z,2.87
2017-08-13T18:52:23.420Z,4.00
2017-08-13T18:54:51.713Z,3.80
2017-08-13T18:57:19.990Z,3.60
2017-08-13T18:59:49.099Z,2.85
2017-08-13T19:02:17.372Z,3.40
2017-08-13T19:04:45.644Z,3.55
2017-08-13T19:07:13.923Z,3.25
2017-08-13T19:09:42.195Z,2.30
2017-08-13T19:12:10.524Z,3.65
2017-08-13T19:14:38.796Z,2.25
2017-08-13T19:17:07.063Z,2.92
2017-08-13T19:19:35.363Z,3.00
2017-08-13T19:22:04.396Z,3.50
2017-08-13T19:24:32.708Z,2.40
2017-08-13T19:27:01.740Z,2.47
2017-08-13T19:29:30.013Z,2.20
2017-08-13T19:31:58.292Z,2.55
2017-08-13T19:34:26.556Z,2.90
2017-08-13T19:36:55.652Z,2.42
2017-08-13T19:39:24.691Z,2.53
2017-08-13T19:41:52.956Z,3.92
2017-08-13T19:44:21.243Z,2.12
2017-08-13T19:46:50.324Z,3.28
2017-08-13T19:49:18.624Z,3.97
2017-08-13T19:51:46.888Z,2.50
2017-08-13T19:54:15.216Z,3.45
2017-08-13T19:56:43.511Z,4.03
2017-08-13T19:59:11.784Z,2.53
2017-08-13T20:01:40.180Z,2.90
2017-08-13T20:04:08.441Z,3.05
2017-08-13T20:06:36.716Z,3.97
2017-08-13T20:09:05.763Z,4.00
2017-08-13T20:11:34.027Z,2.72
2017-08-13T20:14:03.241Z,2.50
2017-08-13T20:16:32.272Z,2.92
2017-08-13T20:19:00.571Z,2.95
2017-08-13T20:21:29.648Z,3.05
2017-08-13T20:23:57.931Z,3.35
2017-08-13T20:26:27.019Z,3.40
2017-08-13T20:28:56.040Z,3.65
2017-08-13T20:31:24.316Z,3.20
2017-08-13T20:33:52.608Z,4.05
2017-08-13T20:36:20.876Z,3.78
2017-08-13T20:38:49.963Z,4.07
2017-08-13T20:41:18.236Z,5.70
2017-08-13T20:43:46.512Z,3.12
2017-08-13T20:46:14.796Z,2.83
2017-08-13T20:48:43.062Z,5.00
2017-08-13T20:51:11.374Z,4.15
2017-08-13T20:53:39.936Z,3.05
2017-08-13T20:56:08.199Z,2.58
2017-08-13T20:58:36.484Z,3.78
2017-08-13T21:01:04.751Z,3.22
2017-08-13T21:03:33.036Z,2.97
2017-08-13T21:06:01.308Z,3.00
2017-08-13T21:08:29.584Z,3.50
2017-08-13T21:10:58.616Z,3.25
2017-08-13T21:13:26.901Z,5.32
2017-08-13T21:15:55.168Z,3.40
2017-08-13T21:18:23.451Z,3.97
2017-08-13T21:20:52.476Z,6.68
2017-08-13T21:23:20.776Z,3.25
2017-08-13T21:25:49.052Z,4.20
2017-08-13T21:28:18.111Z,4.07
2017-08-13T21:30:46.372Z,3.00
2017-08-13T21:33:14.664Z,3.53
2017-08-13T21:35:43.711Z,3.28
2017-08-13T21:38:11.976Z,2.75
2017-08-13T21:40:40.564Z,2.97
2017-08-13T21:43:09.595Z,3.22
2017-08-13T21:45:38.119Z,3.40
2017-08-13T21:48:07.139Z,4.62
2017-08-13T21:50:35.427Z,6.28
2017-08-13T21:53:03.691Z,3.30
2017-08-13T21:55:31.991Z,3.72
2017-08-13T21:58:00.255Z,2.53
2017-08-13T22:00:28.530Z,3.55
2017-08-13T22:02:56.807Z,3.12
2017-08-13T22:05:25.096Z,3.05
2017-08-13T22:07:53.392Z,3.00
2017-08-13T22:10:21.671Z,3.95
2017-08-13T22:12:49.964Z,2.92
2017-08-13T22:15:18.234Z,7.50
2017-08-13T22:17:46.508Z,3.97
2017-08-13T22:20:14.804Z,4.43
2017-08-13T22:22:43.826Z,2.60
2017-08-13T22:25:12.147Z,2.53
2017-08-13T22:27:40.403Z,3.17
2017-08-13T22:30:08.675Z,2.97
2017-08-13T22:32:36.964Z,3.30
2017-08-13T22:35:05.224Z,5.35
2017-08-13T22:37:33.540Z,4.87
2017-08-13T22:40:02.567Z,4.60
2017-08-13T22:42:30.836Z,3.28
2017-08-13T22:44:59.123Z,3.00
2017-08-13T22:47:27.384Z,3.33
2017-08-13T22:49:56.475Z,2.97
2017-08-13T22:52:25.513Z,2.62
2017-08-13T22:54:53.791Z,3.22
2017-08-13T22:57:22.076Z,7.20
2017-08-13T22:59:51.119Z,3.17
2017-08-13T23:02:19.427Z,4.10
2017-08-13T23:04:48.451Z,2.87
2017-08-13T23:07:16.711Z,3.62
2017-08-13T23:09:45.025Z,3.30
2017-08-13T23:12:14.062Z,3.20
2017-08-13T23:14:42.351Z,3.65
2017-08-13T23:17:12.288Z,3.78
2017-08-13T23:19:40.575Z,3.50
2017-08-13T23:22:08.872Z,3.75
2017-08-13T23:24:37.134Z,3.58
2017-08-13T23:27:05.427Z,6.57
2017-08-13T23:29:33.688Z,3.30
2017-08-13T23:32:01.955Z,5.57
2017-08-13T23:34:30.241Z,4.28
2017-08-13T23:36:58.508Z,3.60
2017-08-13T23:39:26.795Z,2.87
2017-08-13T23:41:55.063Z,2.72
2017-08-13T23:44:24.248Z,3.40
2017-08-13T23:46:53.283Z,3.53
2017-08-13T23:49:21.560Z,3.53
2017-08-13T23:51:49.840Z,2.95
2017-08-13T23:54:19.044Z,2.62
2017-08-13T23:56:48.120Z,5.10
2017-08-13T23:59:17.156Z,2.60
